sensor_id;sensor_type;location;lat;lon;timestamp;P1;durP1;ratioP1;P2;durP2;ratioP2
16075;SDS011;8142;48.242;11.644;2023-06-10T00:01:42;6.27;;;5.67;;
16075;SDS011;8142;48.242;11.644;2023-06-10T00:04:13;6.83;;;5.93;;
16075;SDS011;8142;48.242;11.644;2023-06-10T00:06:40;6.67;;;5.97;;
16075;SDS011;8142;48.242;11.644;2023-06-10T00:09:06;6.80;;;6.10;;
16075;SDS011;8142;48.242;11.644;2023-06-10T00:11:36;7.27;;;6.57;;
16075;SDS011;8142;48.242;11.644;2023-06-10T00:14:03;6.93;;;6.23;;
16075;SDS011;8142;48.242;11.644;2023-06-10T00:16:29;6.97;;;6.27;;
16075;SDS011;8142;48.242;11.644;2023-06-10T00:18:55;6.67;;;6.07;;
16075;SDS011;8142;48.242;11.644;2023-06-10T00:21:26;7.27;;;6.20;;
16075;SDS011;8142;48.242;11.644;2023-06-10T00:23:53;7.37;;;6.03;;
16075;SDS011;8142;48.242;11.644;2023-06-10T00:26:23;6.97;;;6.27;;
16075;SDS011;8142;48.242;11.644;2023-06-10T00:28:49;6.60;;;5.97;;
16075;SDS011;8142;48.242;11.644;2023-06-10T00:31:15;7.63;;;5.90;;
16075;SDS011;8142;48.242;11.644;2023-06-10T00:33:42;7.23;;;6.13;;
16075;SDS011;8142;48.242;11.644;2023-06-10T00:36:08;7.03;;;6.33;;
16075;SDS011;8142;48.242;11.644;2023-06-10T00:38:34;8.10;;;7.20;;
16075;SDS011;8142;48.242;11.644;2023-06-10T00:41:00;8.73;;;7.83;;
16075;SDS011;8142;48.242;11.644;2023-06-10T00:43:26;10.13;;;8.73;;
16075;SDS011;8142;48.242;11.644;2023-06-10T00:45:52;10.70;;;8.20;;
16075;SDS011;8142;48.242;11.644;2023-06-10T00:48:18;11.43;;;7.63;;
16075;SDS011;8142;48.242;11.644;2023-06-10T00:50:45;7.47;;;6.67;;
16075;SDS011;8142;48.242;11.644;2023-06-10T00:53:12;7.37;;;6.57;;
16075;SDS011;8142;48.242;11.644;2023-06-10T00:55:38;7.90;;;6.80;;
16075;SDS011;8142;48.242;11.644;2023-06-10T00:58:06;8.53;;;6.20;;
16075;SDS011;8142;48.242;11.644;2023-06-10T01:00:32;8.27;;;6.47;;
16075;SDS011;8142;48.242;11.644;2023-06-10T01:02:58;7.17;;;6.47;;
16075;SDS011;8142;48.242;11.644;2023-06-10T01:05:24;7.63;;;6.90;;
16075;SDS011;8142;48.242;11.644;2023-06-10T01:07:53;7.60;;;6.50;;
16075;SDS011;8142;48.242;11.644;2023-06-10T01:13:03;8.33;;;7.03;;
16075;SDS011;8142;48.242;11.644;2023-06-10T01:15:34;8.07;;;6.97;;
16075;SDS011;8142;48.242;11.644;2023-06-10T01:18:04;6.77;;;6.07;;
16075;SDS011;8142;48.242;11.644;2023-06-10T01:20:34;7.63;;;6.83;;
16075;SDS011;8142;48.242;11.644;2023-06-10T01:23:05;7.10;;;6.33;;
16075;SDS011;8142;48.242;11.644;2023-06-10T01:25:31;7.23;;;6.53;;
16075;SDS011;8142;48.242;11.644;2023-06-10T01:28:19;7.20;;;6.50;;
16075;SDS011;8142;48.242;11.644;2023-06-10T01:33:47;6.87;;;6.17;;
16075;SDS011;8142;48.242;11.644;2023-06-10T01:36:17;7.67;;;6.87;;
16075;SDS011;8142;48.242;11.644;2023-06-10T01:38:45;7.87;;;7.07;;
16075;SDS011;8142;48.242;11.644;2023-06-10T01:41:13;8.23;;;7.00;;
16075;SDS011;8142;48.242;11.644;2023-06-10T01:43:42;9.07;;;7.37;;
16075;SDS011;8142;48.242;11.644;2023-06-10T01:46:10;8.00;;;6.73;;
16075;SDS011;8142;48.242;11.644;2023-06-10T01:48:37;11.00;;;7.13;;
16075;SDS011;8142;48.242;11.644;2023-06-10T01:51:03;8.27;;;7.47;;
16075;SDS011;8142;48.242;11.644;2023-06-10T01:53:29;7.80;;;7.00;;
16075;SDS011;8142;48.242;11.644;2023-06-10T01:55:55;8.67;;;7.37;;
16075;SDS011;8142;48.242;11.644;2023-06-10T01:58:21;7.57;;;6.77;;
16075;SDS011;8142;48.242;11.644;2023-06-10T02:00:47;7.83;;;6.60;;
16075;SDS011;8142;48.242;11.644;2023-06-10T02:03:13;6.97;;;6.27;;
16075;SDS011;8142;48.242;11.644;2023-06-10T02:05:39;7.03;;;6.37;;
16075;SDS011;8142;48.242;11.644;2023-06-10T02:08:05;6.70;;;6.10;;
16075;SDS011;8142;48.242;11.644;2023-06-10T02:10:31;7.37;;;6.67;;
16075;SDS011;8142;48.242;11.644;2023-06-10T02:12:57;7.80;;;6.83;;
16075;SDS011;8142;48.242;11.644;2023-06-10T02:15:23;6.97;;;6.30;;
16075;SDS011;8142;48.242;11.644;2023-06-10T02:17:49;7.77;;;6.97;;
16075;SDS011;8142;48.242;11.644;2023-06-10T02:20:15;7.20;;;6.53;;
16075;SDS011;8142;48.242;11.644;2023-06-10T02:22:41;7.67;;;6.97;;
16075;SDS011;8142;48.242;11.644;2023-06-10T02:25:07;7.83;;;7.00;;
16075;SDS011;8142;48.242;11.644;2023-06-10T02:27:34;7.20;;;6.50;;
16075;SDS011;8142;48.242;11.644;2023-06-10T02:30:00;7.23;;;6.53;;
16075;SDS011;8142;48.242;11.644;2023-06-10T02:32:26;7.03;;;6.33;;
16075;SDS011;8142;48.242;11.644;2023-06-10T02:34:52;8.63;;;6.90;;
16075;SDS011;8142;48.242;11.644;2023-06-10T02:37:18;7.50;;;6.50;;
16075;SDS011;8142;48.242;11.644;2023-06-10T02:39:44;7.40;;;6.70;;
16075;SDS011;8142;48.242;11.644;2023-06-10T02:42:11;8.27;;;7.10;;
16075;SDS011;8142;48.242;11.644;2023-06-10T02:44:37;8.30;;;6.63;;
16075;SDS011;8142;48.242;11.644;2023-06-10T02:47:03;7.23;;;6.53;;
16075;SDS011;8142;48.242;11.644;2023-06-10T02:49:30;7.80;;;7.00;;
16075;SDS011;8142;48.242;11.644;2023-06-10T02:51:56;8.50;;;7.37;;
16075;SDS011;8142;48.242;11.644;2023-06-10T02:54:22;8.00;;;7.17;;
16075;SDS011;8142;48.242;11.644;2023-06-10T02:56:49;8.63;;;6.87;;
16075;SDS011;8142;48.242;11.644;2023-06-10T02:59:16;7.33;;;6.63;;
16075;SDS011;8142;48.242;11.644;2023-06-10T03:01:42;7.80;;;7.00;;
16075;SDS011;8142;48.242;11.644;2023-06-10T03:04:08;7.60;;;6.77;;
16075;SDS011;8142;48.242;11.644;2023-06-10T03:06:34;8.87;;;7.00;;
16075;SDS011;8142;48.242;11.644;2023-06-10T03:09:01;8.70;;;7.80;;
16075;SDS011;8142;48.242;11.644;2023-06-10T03:11:32;9.10;;;7.97;;
16075;SDS011;8142;48.242;11.644;2023-06-10T03:13:58;9.00;;;7.80;;
16075;SDS011;8142;48.242;11.644;2023-06-10T03:16:24;10.00;;;8.90;;
16075;SDS011;8142;48.242;11.644;2023-06-10T03:18:50;9.43;;;8.47;;
16075;SDS011;8142;48.242;11.644;2023-06-10T03:21:17;10.10;;;8.00;;
16075;SDS011;8142;48.242;11.644;2023-06-10T03:23:43;9.10;;;8.03;;
16075;SDS011;8142;48.242;11.644;2023-06-10T03:26:09;10.17;;;8.97;;
16075;SDS011;8142;48.242;11.644;2023-06-10T03:28:35;9.40;;;8.40;;
16075;SDS011;8142;48.242;11.644;2023-06-10T03:31:01;9.37;;;8.40;;
16075;SDS011;8142;48.242;11.644;2023-06-10T03:33:27;9.40;;;8.27;;
16075;SDS011;8142;48.242;11.644;2023-06-10T03:35:53;9.20;;;7.83;;
16075;SDS011;8142;48.242;11.644;2023-06-10T03:38:19;10.00;;;8.30;;
16075;SDS011;8142;48.242;11.644;2023-06-10T03:40:44;10.33;;;8.67;;
16075;SDS011;8142;48.242;11.644;2023-06-10T03:43:10;9.37;;;8.30;;
16075;SDS011;8142;48.242;11.644;2023-06-10T03:45:36;9.33;;;8.33;;
16075;SDS011;8142;48.242;11.644;2023-06-10T03:48:03;9.83;;;8.53;;
16075;SDS011;8142;48.242;11.644;2023-06-10T03:50:29;9.00;;;8.00;;
16075;SDS011;8142;48.242;11.644;2023-06-10T03:52:55;10.03;;;8.70;;
16075;SDS011;8142;48.242;11.644;2023-06-10T03:55:21;9.80;;;8.77;;
16075;SDS011;8142;48.242;11.644;2023-06-10T03:57:49;10.57;;;8.67;;
16075;SDS011;8142;48.242;11.644;2023-06-10T04:00:15;9.23;;;8.27;;
16075;SDS011;8142;48.242;11.644;2023-06-10T04:02:43;9.87;;;8.20;;
16075;SDS011;8142;48.242;11.644;2023-06-10T04:05:12;10.00;;;8.50;;
16075;SDS011;8142;48.242;11.644;2023-06-10T04:07:39;11.43;;;7.90;;
16075;SDS011;8142;48.242;11.644;2023-06-10T04:10:08;10.30;;;9.20;;
16075;SDS011;8142;48.242;11.644;2023-06-10T04:12:35;11.37;;;9.30;;
16075;SDS011;8142;48.242;11.644;2023-06-10T04:15:01;10.70;;;9.60;;
16075;SDS011;8142;48.242;11.644;2023-06-10T04:17:28;10.30;;;8.77;;
16075;SDS011;8142;48.242;11.644;2023-06-10T04:19:54;9.87;;;8.87;;
16075;SDS011;8142;48.242;11.644;2023-06-10T04:22:21;10.03;;;8.70;;
16075;SDS011;8142;48.242;11.644;2023-06-10T04:24:48;10.90;;;9.57;;
16075;SDS011;8142;48.242;11.644;2023-06-10T04:27:14;10.57;;;9.20;;
16075;SDS011;8142;48.242;11.644;2023-06-10T04:29:40;13.20;;;9.30;;
16075;SDS011;8142;48.242;11.644;2023-06-10T04:32:06;10.37;;;9.20;;
16075;SDS011;8142;48.242;11.644;2023-06-10T04:34:33;9.77;;;8.63;;
16075;SDS011;8142;48.242;11.644;2023-06-10T04:36:59;11.13;;;9.00;;
16075;SDS011;8142;48.242;11.644;2023-06-10T04:39:25;11.30;;;9.27;;
16075;SDS011;8142;48.242;11.644;2023-06-10T04:41:51;10.80;;;9.03;;
16075;SDS011;8142;48.242;11.644;2023-06-10T04:44:17;10.37;;;9.27;;
16075;SDS011;8142;48.242;11.644;2023-06-10T04:46:44;10.30;;;9.20;;
16075;SDS011;8142;48.242;11.644;2023-06-10T04:49:10;10.83;;;9.53;;
16075;SDS011;8142;48.242;11.644;2023-06-10T04:51:39;11.07;;;9.43;;
16075;SDS011;8142;48.242;11.644;2023-06-10T04:54:05;11.03;;;9.27;;
16075;SDS011;8142;48.242;11.644;2023-06-10T04:56:32;10.33;;;9.17;;
16075;SDS011;8142;48.242;11.644;2023-06-10T04:58:58;11.13;;;9.27;;
16075;SDS011;8142;48.242;11.644;2023-06-10T05:01:24;9.83;;;8.80;;
16075;SDS011;8142;48.242;11.644;2023-06-10T05:03:50;10.03;;;8.93;;
16075;SDS011;8142;48.242;11.644;2023-06-10T05:06:16;10.50;;;8.70;;
16075;SDS011;8142;48.242;11.644;2023-06-10T05:08:42;9.63;;;8.53;;
16075;SDS011;8142;48.242;11.644;2023-06-10T05:11:08;9.93;;;8.93;;
16075;SDS011;8142;48.242;11.644;2023-06-10T05:13:34;9.20;;;8.30;;
16075;SDS011;8142;48.242;11.644;2023-06-10T05:16:00;10.00;;;8.87;;
16075;SDS011;8142;48.242;11.644;2023-06-10T05:18:26;11.63;;;9.47;;
16075;SDS011;8142;48.242;11.644;2023-06-10T05:20:52;9.80;;;8.67;;
16075;SDS011;8142;48.242;11.644;2023-06-10T05:23:19;11.03;;;9.30;;
16075;SDS011;8142;48.242;11.644;2023-06-10T05:25:45;10.97;;;8.77;;
16075;SDS011;8142;48.242;11.644;2023-06-10T05:28:11;10.27;;;9.17;;
16075;SDS011;8142;48.242;11.644;2023-06-10T05:30:37;9.87;;;8.73;;
16075;SDS011;8142;48.242;11.644;2023-06-10T05:33:03;9.33;;;8.33;;
16075;SDS011;8142;48.242;11.644;2023-06-10T05:35:30;9.20;;;8.20;;
16075;SDS011;8142;48.242;11.644;2023-06-10T05:37:56;10.00;;;8.17;;
16075;SDS011;8142;48.242;11.644;2023-06-10T05:40:22;9.47;;;7.93;;
16075;SDS011;8142;48.242;11.644;2023-06-10T05:42:48;8.40;;;7.50;;
16075;SDS011;8142;48.242;11.644;2023-06-10T05:45:14;8.07;;;7.20;;
16075;SDS011;8142;48.242;11.644;2023-06-10T05:47:41;8.63;;;7.57;;
16075;SDS011;8142;48.242;11.644;2023-06-10T05:50:07;8.27;;;7.47;;
16075;SDS011;8142;48.242;11.644;2023-06-10T05:52:34;8.33;;;7.53;;
16075;SDS011;8142;48.242;11.644;2023-06-10T05:55:01;8.10;;;7.30;;
16075;SDS011;8142;48.242;11.644;2023-06-10T05:57:28;8.50;;;7.53;;
16075;SDS011;8142;48.242;11.644;2023-06-10T05:59:54;7.67;;;6.97;;
16075;SDS011;8142;48.242;11.644;2023-06-10T06:02:20;7.90;;;7.10;;
16075;SDS011;8142;48.242;11.644;2023-06-10T06:04:46;8.80;;;7.90;;
16075;SDS011;8142;48.242;11.644;2023-06-10T06:07:12;9.00;;;7.97;;
16075;SDS011;8142;48.242;11.644;2023-06-10T06:09:38;8.23;;;7.37;;
16075;SDS011;8142;48.242;11.644;2023-06-10T06:12:04;8.77;;;7.53;;
16075;SDS011;8142;48.242;11.644;2023-06-10T06:14:31;8.60;;;7.70;;
16075;SDS011;8142;48.242;11.644;2023-06-10T06:16:57;8.53;;;7.63;;
16075;SDS011;8142;48.242;11.644;2023-06-10T06:19:23;7.40;;;6.60;;
16075;SDS011;8142;48.242;11.644;2023-06-10T06:21:49;7.70;;;6.60;;
16075;SDS011;8142;48.242;11.644;2023-06-10T06:24:15;8.37;;;7.07;;
16075;SDS011;8142;48.242;11.644;2023-06-10T06:26:41;7.33;;;6.63;;
16075;SDS011;8142;48.242;11.644;2023-06-10T06:29:07;7.40;;;6.60;;
16075;SDS011;8142;48.242;11.644;2023-06-10T06:31:33;9.27;;;6.47;;
16075;SDS011;8142;48.242;11.644;2023-06-10T06:33:59;7.57;;;6.80;;
16075;SDS011;8142;48.242;11.644;2023-06-10T06:36:25;8.67;;;7.10;;
16075;SDS011;8142;48.242;11.644;2023-06-10T06:38:51;8.17;;;7.37;;
16075;SDS011;8142;48.242;11.644;2023-06-10T06:41:17;8.40;;;6.77;;
16075;SDS011;8142;48.242;11.644;2023-06-10T06:43:43;6.70;;;6.10;;
16075;SDS011;8142;48.242;11.644;2023-06-10T06:46:12;7.00;;;6.30;;
16075;SDS011;8142;48.242;11.644;2023-06-10T06:48:38;6.50;;;5.90;;
16075;SDS011;8142;48.242;11.644;2023-06-10T06:51:04;7.00;;;6.30;;
16075;SDS011;8142;48.242;11.644;2023-06-10T06:53:30;7.63;;;6.40;;
16075;SDS011;8142;48.242;11.644;2023-06-10T06:55:56;6.90;;;6.07;;
16075;SDS011;8142;48.242;11.644;2023-06-10T06:58:22;6.50;;;5.90;;
16075;SDS011;8142;48.242;11.644;2023-06-10T07:00:48;8.10;;;5.93;;
16075;SDS011;8142;48.242;11.644;2023-06-10T07:03:13;6.53;;;5.83;;
16075;SDS011;8142;48.242;11.644;2023-06-10T07:05:40;6.37;;;5.63;;
16075;SDS011;8142;48.242;11.644;2023-06-10T07:08:06;6.80;;;6.10;;
16075;SDS011;8142;48.242;11.644;2023-06-10T07:10:32;6.80;;;6.10;;
16075;SDS011;8142;48.242;11.644;2023-06-10T07:12:58;7.00;;;5.80;;
16075;SDS011;8142;48.242;11.644;2023-06-10T07:15:24;5.90;;;5.27;;
16075;SDS011;8142;48.242;11.644;2023-06-10T07:17:50;5.80;;;5.20;;
16075;SDS011;8142;48.242;11.644;2023-06-10T07:20:19;5.43;;;4.93;;
16075;SDS011;8142;48.242;11.644;2023-06-10T07:22:44;6.23;;;5.20;;
16075;SDS011;8142;48.242;11.644;2023-06-10T07:25:10;8.57;;;5.80;;
16075;SDS011;8142;48.242;11.644;2023-06-10T07:27:36;6.33;;;5.30;;
16075;SDS011;8142;48.242;11.644;2023-06-10T07:30:03;6.77;;;5.53;;
16075;SDS011;8142;48.242;11.644;2023-06-10T07:32:31;6.17;;;5.57;;
16075;SDS011;8142;48.242;11.644;2023-06-10T07:34:57;6.77;;;5.60;;
16075;SDS011;8142;48.242;11.644;2023-06-10T07:37:23;6.67;;;5.30;;
16075;SDS011;8142;48.242;11.644;2023-06-10T07:39:48;6.00;;;5.50;;
16075;SDS011;8142;48.242;11.644;2023-06-10T07:42:14;5.90;;;5.30;;
16075;SDS011;8142;48.242;11.644;2023-06-10T07:44:40;5.70;;;5.20;;
16075;SDS011;8142;48.242;11.644;2023-06-10T07:47:06;5.40;;;4.90;;
16075;SDS011;8142;48.242;11.644;2023-06-10T07:49:32;5.70;;;4.87;;
16075;SDS011;8142;48.242;11.644;2023-06-10T07:51:58;5.63;;;5.03;;
16075;SDS011;8142;48.242;11.644;2023-06-10T07:54:23;5.60;;;5.10;;
16075;SDS011;8142;48.242;11.644;2023-06-10T07:56:49;6.23;;;5.37;;
16075;SDS011;8142;48.242;11.644;2023-06-10T07:59:18;5.60;;;5.10;;
16075;SDS011;8142;48.242;11.644;2023-06-10T08:01:43;7.57;;;5.17;;
16075;SDS011;8142;48.242;11.644;2023-06-10T08:04:09;6.10;;;5.17;;
16075;SDS011;8142;48.242;11.644;2023-06-10T08:06:36;5.73;;;5.23;;
16075;SDS011;8142;48.242;11.644;2023-06-10T08:09:02;5.70;;;5.20;;
16075;SDS011;8142;48.242;11.644;2023-06-10T08:11:28;5.77;;;5.17;;
16075;SDS011;8142;48.242;11.644;2023-06-10T08:13:55;5.47;;;4.97;;
16075;SDS011;8142;48.242;11.644;2023-06-10T08:16:21;7.57;;;5.03;;
16075;SDS011;8142;48.242;11.644;2023-06-10T08:18:47;5.47;;;4.97;;
16075;SDS011;8142;48.242;11.644;2023-06-10T08:21:16;5.77;;;5.27;;
16075;SDS011;8142;48.242;11.644;2023-06-10T08:23:42;5.77;;;5.27;;
16075;SDS011;8142;48.242;11.644;2023-06-10T08:26:09;5.60;;;5.10;;
16075;SDS011;8142;48.242;11.644;2023-06-10T08:28:35;5.23;;;4.63;;
16075;SDS011;8142;48.242;11.644;2023-06-10T08:31:01;5.50;;;4.93;;
16075;SDS011;8142;48.242;11.644;2023-06-10T08:33:26;5.97;;;5.37;;
16075;SDS011;8142;48.242;11.644;2023-06-10T08:35:52;6.53;;;5.33;;
16075;SDS011;8142;48.242;11.644;2023-06-10T08:38:18;5.40;;;4.90;;
16075;SDS011;8142;48.242;11.644;2023-06-10T08:40:44;5.43;;;4.90;;
16075;SDS011;8142;48.242;11.644;2023-06-10T08:43:15;5.13;;;4.30;;
16075;SDS011;8142;48.242;11.644;2023-06-10T08:45:48;6.33;;;4.83;;
16075;SDS011;8142;48.242;11.644;2023-06-10T08:48:14;5.07;;;4.57;;
16075;SDS011;8142;48.242;11.644;2023-06-10T08:50:44;4.80;;;4.40;;
16075;SDS011;8142;48.242;11.644;2023-06-10T08:53:11;6.90;;;5.40;;
16075;SDS011;8142;48.242;11.644;2023-06-10T08:55:42;5.67;;;5.17;;
16075;SDS011;8142;48.242;11.644;2023-06-10T08:58:09;5.40;;;4.90;;
16075;SDS011;8142;48.242;11.644;2023-06-10T09:00:38;6.40;;;5.53;;
16075;SDS011;8142;48.242;11.644;2023-06-10T09:03:04;7.07;;;6.03;;
16075;SDS011;8142;48.242;11.644;2023-06-10T09:05:34;6.87;;;5.50;;
16075;SDS011;8142;48.242;11.644;2023-06-10T09:08:01;6.97;;;5.60;;
16075;SDS011;8142;48.242;11.644;2023-06-10T09:10:27;6.10;;;5.50;;
16075;SDS011;8142;48.242;11.644;2023-06-10T09:12:54;5.90;;;5.30;;
16075;SDS011;8142;48.242;11.644;2023-06-10T09:15:20;6.00;;;5.40;;
16075;SDS011;8142;48.242;11.644;2023-06-10T09:17:46;5.87;;;4.43;;
16075;SDS011;8142;48.242;11.644;2023-06-10T09:20:13;5.33;;;4.23;;
16075;SDS011;8142;48.242;11.644;2023-06-10T09:22:40;5.10;;;4.60;;
16075;SDS011;8142;48.242;11.644;2023-06-10T09:25:08;5.93;;;4.40;;
16075;SDS011;8142;48.242;11.644;2023-06-10T09:27:45;4.53;;;4.13;;
16075;SDS011;8142;48.242;11.644;2023-06-10T09:32:55;6.87;;;4.97;;
16075;SDS011;8142;48.242;11.644;2023-06-10T09:35:26;4.73;;;4.23;;
16075;SDS011;8142;48.242;11.644;2023-06-10T09:37:55;4.30;;;3.90;;
16075;SDS011;8142;48.242;11.644;2023-06-10T09:40:22;4.87;;;4.37;;
16075;SDS011;8142;48.242;11.644;2023-06-10T09:42:52;5.10;;;4.30;;
16075;SDS011;8142;48.242;11.644;2023-06-10T09:45:20;4.20;;;3.80;;
16075;SDS011;8142;48.242;11.644;2023-06-10T09:47:47;4.53;;;4.13;;
16075;SDS011;8142;48.242;11.644;2023-06-10T09:50:17;4.47;;;4.07;;
16075;SDS011;8142;48.242;11.644;2023-06-10T09:52:43;4.40;;;4.00;;
16075;SDS011;8142;48.242;11.644;2023-06-10T09:55:11;4.70;;;4.30;;
16075;SDS011;8142;48.242;11.644;2023-06-10T09:57:37;5.10;;;4.60;;
16075;SDS011;8142;48.242;11.644;2023-06-10T10:00:05;6.20;;;4.37;;
16075;SDS011;8142;48.242;11.644;2023-06-10T10:02:33;5.10;;;4.17;;
16075;SDS011;8142;48.242;11.644;2023-06-10T10:05:14;4.27;;;3.87;;
16075;SDS011;8142;48.242;11.644;2023-06-10T10:07:41;4.13;;;3.83;;
16075;SDS011;8142;48.242;11.644;2023-06-10T10:10:07;3.80;;;3.50;;
16075;SDS011;8142;48.242;11.644;2023-06-10T10:12:35;4.30;;;3.90;;
16075;SDS011;8142;48.242;11.644;2023-06-10T10:15:03;4.03;;;3.73;;
16075;SDS011;8142;48.242;11.644;2023-06-10T10:17:34;5.00;;;4.57;;
16075;SDS011;8142;48.242;11.644;2023-06-10T10:20:03;4.67;;;4.10;;
16075;SDS011;8142;48.242;11.644;2023-06-10T10:22:39;4.27;;;3.90;;
16075;SDS011;8142;48.242;11.644;2023-06-10T10:25:11;4.30;;;4.00;;
16075;SDS011;8142;48.242;11.644;2023-06-10T10:28:24;4.50;;;4.10;;
16075;SDS011;8142;48.242;11.644;2023-06-10T10:30:30;4.63;;;4.17;;
16075;SDS011;8142;48.242;11.644;2023-06-10T10:35:40;4.27;;;3.77;;
16075;SDS011;8142;48.242;11.644;2023-06-10T10:38:07;3.70;;;3.40;;
16075;SDS011;8142;48.242;11.644;2023-06-10T10:40:34;3.80;;;3.50;;
16075;SDS011;8142;48.242;11.644;2023-06-10T10:43:01;4.00;;;3.70;;
16075;SDS011;8142;48.242;11.644;2023-06-10T10:45:31;3.87;;;3.53;;
16075;SDS011;8142;48.242;11.644;2023-06-10T10:47:58;3.80;;;3.50;;
16075;SDS011;8142;48.242;11.644;2023-06-10T10:50:34;3.90;;;3.60;;
16075;SDS011;8142;48.242;11.644;2023-06-10T10:53:01;3.60;;;3.30;;
16075;SDS011;8142;48.242;11.644;2023-06-10T10:55:28;3.67;;;3.30;;
16075;SDS011;8142;48.242;11.644;2023-06-10T11:00:24;3.90;;;3.50;;
16075;SDS011;8142;48.242;11.644;2023-06-10T11:02:57;4.30;;;3.90;;
16075;SDS011;8142;48.242;11.644;2023-06-10T11:08:04;8.07;;;4.40;;
16075;SDS011;8142;48.242;11.644;2023-06-10T11:10:35;5.57;;;4.43;;
16075;SDS011;8142;48.242;11.644;2023-06-10T11:15:49;4.40;;;3.97;;
16075;SDS011;8142;48.242;11.644;2023-06-10T11:18:25;5.50;;;4.07;;
16075;SDS011;8142;48.242;11.644;2023-06-10T11:20:56;4.87;;;4.33;;
16075;SDS011;8142;48.242;11.644;2023-06-10T11:26:12;5.63;;;4.50;;
16075;SDS011;8142;48.242;11.644;2023-06-10T11:33:57;5.17;;;4.60;;
16075;SDS011;8142;48.242;11.644;2023-06-10T11:36:23;5.27;;;4.37;;
16075;SDS011;8142;48.242;11.644;2023-06-10T11:38:52;4.90;;;4.47;;
16075;SDS011;8142;48.242;11.644;2023-06-10T11:41:23;4.40;;;4.00;;
16075;SDS011;8142;48.242;11.644;2023-06-10T11:43:51;5.33;;;4.50;;
16075;SDS011;8142;48.242;11.644;2023-06-10T11:46:18;4.50;;;4.10;;
16075;SDS011;8142;48.242;11.644;2023-06-10T11:49:02;5.43;;;3.97;;
16075;SDS011;8142;48.242;11.644;2023-06-10T11:51:34;4.33;;;3.93;;
16075;SDS011;8142;48.242;11.644;2023-06-10T11:54:01;5.03;;;4.17;;
16075;SDS011;8142;48.242;11.644;2023-06-10T11:56:28;4.23;;;3.87;;
16075;SDS011;8142;48.242;11.644;2023-06-10T11:58:58;4.23;;;3.83;;
16075;SDS011;8142;48.242;11.644;2023-06-10T12:01:33;3.90;;;3.60;;
16075;SDS011;8142;48.242;11.644;2023-06-10T12:04:04;4.03;;;3.73;;
16075;SDS011;8142;48.242;11.644;2023-06-10T12:09:20;3.90;;;3.50;;
16075;SDS011;8142;48.242;11.644;2023-06-10T12:12:05;4.20;;;3.80;;
16075;SDS011;8142;48.242;11.644;2023-06-10T12:14:49;4.00;;;3.60;;
16075;SDS011;8142;48.242;11.644;2023-06-10T12:17:34;4.00;;;3.60;;
16075;SDS011;8142;48.242;11.644;2023-06-10T12:20:03;3.70;;;3.40;;
16075;SDS011;8142;48.242;11.644;2023-06-10T12:22:37;3.90;;;3.50;;
16075;SDS011;8142;48.242;11.644;2023-06-10T12:25:08;3.83;;;3.30;;
16075;SDS011;8142;48.242;11.644;2023-06-10T12:27:35;4.63;;;3.40;;
16075;SDS011;8142;48.242;11.644;2023-06-10T12:30:03;3.77;;;3.10;;
16075;SDS011;8142;48.242;11.644;2023-06-10T12:32:35;3.10;;;2.90;;
16075;SDS011;8142;48.242;11.644;2023-06-10T12:35:11;5.27;;;3.93;;
16075;SDS011;8142;48.242;11.644;2023-06-10T12:37:38;4.53;;;4.13;;
16075;SDS011;8142;48.242;11.644;2023-06-10T12:40:05;4.37;;;3.90;;
16075;SDS011;8142;48.242;11.644;2023-06-10T12:42:33;5.47;;;4.40;;
16075;SDS011;8142;48.242;11.644;2023-06-10T12:45:01;4.57;;;3.90;;
16075;SDS011;8142;48.242;11.644;2023-06-10T12:47:35;5.00;;;4.50;;
16075;SDS011;8142;48.242;11.644;2023-06-10T12:50:05;5.13;;;4.63;;
16075;SDS011;8142;48.242;11.644;2023-06-10T12:52:31;5.47;;;4.63;;
16075;SDS011;8142;48.242;11.644;2023-06-10T12:54:57;4.67;;;4.27;;
16075;SDS011;8142;48.242;11.644;2023-06-10T12:57:24;4.90;;;4.13;;
16075;SDS011;8142;48.242;11.644;2023-06-10T12:59:50;4.70;;;4.23;;
16075;SDS011;8142;48.242;11.644;2023-06-10T13:02:20;4.90;;;4.40;;
16075;SDS011;8142;48.242;11.644;2023-06-10T13:04:49;4.47;;;3.90;;
16075;SDS011;8142;48.242;11.644;2023-06-10T13:07:15;5.07;;;3.80;;
16075;SDS011;8142;48.242;11.644;2023-06-10T13:09:42;5.43;;;4.17;;
16075;SDS011;8142;48.242;11.644;2023-06-10T13:12:08;4.93;;;4.50;;
16075;SDS011;8142;48.242;11.644;2023-06-10T13:14:35;5.47;;;4.87;;
16075;SDS011;8142;48.242;11.644;2023-06-10T13:17:05;4.50;;;4.10;;
16075;SDS011;8142;48.242;11.644;2023-06-10T13:19:32;4.47;;;4.07;;
16075;SDS011;8142;48.242;11.644;2023-06-10T13:21:58;4.77;;;4.37;;
16075;SDS011;8142;48.242;11.644;2023-06-10T13:24:24;5.50;;;3.80;;
16075;SDS011;8142;48.242;11.644;2023-06-10T13:26:50;4.63;;;4.23;;
16075;SDS011;8142;48.242;11.644;2023-06-10T13:29:16;5.43;;;4.03;;
16075;SDS011;8142;48.242;11.644;2023-06-10T13:31:42;4.60;;;4.17;;
16075;SDS011;8142;48.242;11.644;2023-06-10T13:34:08;4.80;;;4.33;;
16075;SDS011;8142;48.242;11.644;2023-06-10T13:36:34;4.40;;;4.00;;
16075;SDS011;8142;48.242;11.644;2023-06-10T13:39:00;4.37;;;3.80;;
16075;SDS011;8142;48.242;11.644;2023-06-10T13:41:26;4.60;;;4.20;;
16075;SDS011;8142;48.242;11.644;2023-06-10T13:43:54;4.47;;;4.07;;
16075;SDS011;8142;48.242;11.644;2023-06-10T13:46:20;4.50;;;3.83;;
16075;SDS011;8142;48.242;11.644;2023-06-10T13:48:47;4.70;;;3.97;;
16075;SDS011;8142;48.242;11.644;2023-06-10T13:51:13;4.57;;;4.10;;
16075;SDS011;8142;48.242;11.644;2023-06-10T13:53:39;4.40;;;4.00;;
16075;SDS011;8142;48.242;11.644;2023-06-10T13:56:05;4.50;;;4.10;;
16075;SDS011;8142;48.242;11.644;2023-06-10T13:58:31;4.60;;;4.20;;
16075;SDS011;8142;48.242;11.644;2023-06-10T14:00:57;4.47;;;4.07;;
16075;SDS011;8142;48.242;11.644;2023-06-10T14:03:23;4.70;;;4.20;;
16075;SDS011;8142;48.242;11.644;2023-06-10T14:05:50;4.20;;;3.90;;
16075;SDS011;8142;48.242;11.644;2023-06-10T14:08:15;6.07;;;4.50;;
16075;SDS011;8142;48.242;11.644;2023-06-10T14:10:42;4.47;;;4.07;;
16075;SDS011;8142;48.242;11.644;2023-06-10T14:13:08;5.00;;;4.03;;
16075;SDS011;8142;48.242;11.644;2023-06-10T14:15:34;5.87;;;4.43;;
16075;SDS011;8142;48.242;11.644;2023-06-10T14:18:00;4.23;;;3.83;;
16075;SDS011;8142;48.242;11.644;2023-06-10T14:20:26;3.83;;;3.53;;
16075;SDS011;8142;48.242;11.644;2023-06-10T14:22:56;5.27;;;3.50;;
16075;SDS011;8142;48.242;11.644;2023-06-10T14:25:23;3.37;;;3.07;;
16075;SDS011;8142;48.242;11.644;2023-06-10T14:27:49;3.40;;;2.97;;
16075;SDS011;8142;48.242;11.644;2023-06-10T14:30:15;3.90;;;3.50;;
16075;SDS011;8142;48.242;11.644;2023-06-10T14:32:42;3.93;;;3.63;;
16075;SDS011;8142;48.242;11.644;2023-06-10T14:35:08;3.90;;;3.60;;
16075;SDS011;8142;48.242;11.644;2023-06-10T14:37:35;3.93;;;3.57;;
16075;SDS011;8142;48.242;11.644;2023-06-10T14:40:02;4.30;;;3.60;;
16075;SDS011;8142;48.242;11.644;2023-06-10T14:42:29;4.13;;;3.73;;
16075;SDS011;8142;48.242;11.644;2023-06-10T14:44:55;4.30;;;3.90;;
16075;SDS011;8142;48.242;11.644;2023-06-10T14:47:21;4.53;;;4.13;;
16075;SDS011;8142;48.242;11.644;2023-06-10T14:49:47;7.27;;;4.30;;
16075;SDS011;8142;48.242;11.644;2023-06-10T14:52:13;4.73;;;4.27;;
16075;SDS011;8142;48.242;11.644;2023-06-10T14:54:38;4.97;;;4.43;;
16075;SDS011;8142;48.242;11.644;2023-06-10T14:57:04;4.70;;;3.90;;
16075;SDS011;8142;48.242;11.644;2023-06-10T14:59:31;4.30;;;3.87;;
16075;SDS011;8142;48.242;11.644;2023-06-10T15:01:57;5.10;;;3.90;;
16075;SDS011;8142;48.242;11.644;2023-06-10T15:04:25;4.10;;;3.70;;
16075;SDS011;8142;48.242;11.644;2023-06-10T15:06:51;4.33;;;3.93;;
16075;SDS011;8142;48.242;11.644;2023-06-10T15:09:17;4.17;;;3.60;;
16075;SDS011;8142;48.242;11.644;2023-06-10T15:11:42;3.77;;;3.40;;
16075;SDS011;8142;48.242;11.644;2023-06-10T15:14:08;3.80;;;3.50;;
16075;SDS011;8142;48.242;11.644;2023-06-10T15:16:34;4.07;;;3.67;;